Time;durP1;ratioP1;P1;durP2;ratioP2;P2;SDS_P1;SDS_P2;PMS_P1;PMS_P2;Temp;Humidity;BMP_temperature;BMP_pressure;BME280_temperature;BME280_humidity;BME280_pressure;Samples;Min_cycle;Max_cycle;Signal;HPM_P1;HPM_P2
2023/01/31 00:01:30;;;;;;;7.90;2.22;;;2.80;99.90;;;;;;5128705;27;20054;-59
2023/01/31 00:04:03;;;;;;;6.18;2.10;;;2.70;99.90;;;;;;5136121;27;20542;-59
2023/01/31 00:06:52;;;;;;;11.13;1.98;;;2.60;99.90;;;;;;5122136;27;20047;-59
2023/01/31 00:09:19;;;;;;;6.05;1.70;;;2.60;99.90;;;;;;5150607;27;20046;-59
2023/01/31 00:11:46;;;;;;;6.10;1.27;;;2.60;99.90;;;;;;5133254;27;20458;-59
2023/01/31 00:14:18;;;;;;;4.70;1.08;;;2.60;99.90;;;;;;5150027;27;20092;-59
2023/01/31 00:16:45;;;;;;;2.83;1.20;;;2.70;99.90;;;;;;5142293;27;20453;-58
2023/01/31 00:19:12;;;;;;;8.02;1.50;;;2.70;99.90;;;;;;5132870;27;20466;-59
2023/01/31 00:21:42;;;;;;;1.67;0.90;;;2.70;99.90;;;;;;5132194;27;20062;-59
2023/01/31 00:24:11;;;;;;;3.50;1.27;;;2.70;99.90;;;;;;5133626;27;20039;-58
2023/01/31 00:26:38;;;;;;;4.50;1.30;;;2.70;99.90;;;;;;5121819;27;20077;-59
2023/01/31 00:29:05;;;;;;;6.28;1.45;;;2.60;99.90;;;;;;5134912;27;20069;-59
2023/01/31 00:31:33;;;;;;;3.50;1.17;;;2.60;99.90;;;;;;5134643;27;20099;-59
2023/01/31 00:34:01;;;;;;;5.20;0.90;;;2.50;99.90;;;;;;5143235;27;20051;-59
2023/01/31 00:36:31;;;;;;;4.97;1.10;;;2.50;99.90;;;;;;5132802;27;20051;-59
2023/01/31 00:39:00;;;;;;;1.27;0.82;;;2.30;99.90;;;;;;5150702;27;20095;-59
2023/01/31 00:41:29;;;;;;;3.97;1.40;;;2.30;99.90;;;;;;5147383;27;20043;-59
2023/01/31 00:43:56;;;;;;;8.98;1.88;;;2.30;99.90;;;;;;5120093;27;20039;-59
2023/01/31 00:46:23;;;;;;;2.40;1.05;;;2.30;99.90;;;;;;5113458;27;20514;-59
2023/01/31 00:48:50;;;;;;;3.70;1.20;;;2.30;99.90;;;;;;5139860;27;20031;-59
2023/01/31 00:51:17;;;;;;;;;;;2.30;99.90;;;;;;5126480;27;20043;-59
2023/01/31 00:53:45;;;;;;;2.65;1.10;;;2.40;99.90;;;;;;5113293;27;20336;-59
2023/01/31 00:56:13;;;;;;;;;;;2.50;99.90;;;;;;5134365;27;20430;-59
2023/01/31 00:58:40;;;;;;;;;;;2.40;99.90;;;;;;5114469;27;20023;-59
2023/01/31 01:01:25;;;;;;;1.70;0.80;;;2.40;99.90;;;;;;5132870;27;19957;-59
2023/01/31 01:03:54;;;;;;;4.80;1.10;;;2.40;99.90;;;;;;5151222;27;20531;-59
2023/01/31 01:06:22;;;;;;;7.00;1.40;;;2.30;99.90;;;;;;5107922;28;20044;-59
2023/01/31 01:08:50;;;;;;;5.45;1.60;;;2.20;99.90;;;;;;5129732;27;20039;-59
2023/01/31 01:11:20;;;;;;;3.40;1.40;;;2.70;99.90;;;;;;5128854;27;20039;-58
2023/01/31 01:13:48;;;;;;;3.75;1.40;;;2.80;99.90;;;;;;5124697;27;20042;-59
2023/01/31 01:16:25;;;;;;;7.43;1.30;;;2.90;99.90;;;;;;5133735;27;20047;-59
2023/01/31 01:18:53;;;;;;;4.78;1.40;;;3.00;99.90;;;;;;5132457;27;20050;-59
2023/01/31 01:21:26;;;;;;;9.30;1.60;;;3.10;99.90;;;;;;5151203;27;20157;-59
2023/01/31 01:23:55;;;;;;;5.53;1.17;;;3.10;99.90;;;;;;5159963;27;20046;-59
2023/01/31 01:26:28;;;;;;;6.72;1.75;;;3.10;99.90;;;;;;5125013;27;20375;-59
2023/01/31 01:28:57;;;;;;;6.00;1.70;;;3.00;99.90;;;;;;5135243;27;20035;-59
2023/01/31 01:31:28;;;;;;;8.60;2.55;;;2.80;99.90;;;;;;5140954;27;20088;-59
2023/01/31 01:34:10;;;;;;;8.20;2.30;;;2.70;99.90;;;;;;5142179;27;20533;-59
2023/01/31 01:36:38;;;;;;;4.43;1.45;;;2.60;99.90;;;;;;5114121;27;20448;-59
2023/01/31 01:39:07;;;;;;;2.80;1.25;;;2.50;99.90;;;;;;5120620;27;20054;-59
2023/01/31 01:41:35;;;;;;;6.32;1.33;;;2.50;99.90;;;;;;5122376;27;20112;-59
2023/01/31 01:44:03;;;;;;;;;;;2.30;99.90;;;;;;5146021;27;20114;-59
2023/01/31 01:46:32;;;;;;;6.65;0.63;;;2.30;99.90;;;;;;5138437;27;19919;-59
2023/01/31 01:49:29;;;;;;;3.42;1.20;;;2.30;99.90;;;;;;5144415;27;20034;-59
2023/01/31 01:52:01;;;;;;;2.38;1.10;;;2.30;99.90;;;;;;5144723;27;20043;-59
2023/01/31 01:54:36;;;;;;;3.97;1.65;;;2.30;99.90;;;;;;5148582;27;20453;-59
2023/01/31 01:57:05;;;;;;;8.82;2.53;;;2.30;99.90;;;;;;5137177;27;20556;-59
2023/01/31 02:00:12;;;;;;;10.20;3.00;;;2.30;99.90;;;;;;5136347;27;20051;-59
2023/01/31 02:02:44;;;;;;;10.98;2.35;;;2.30;99.90;;;;;;5117244;27;20044;-59
2023/01/31 02:05:16;;;;;;;6.70;2.08;;;2.30;99.90;;;;;;5129343;27;20092;-59
2023/01/31 02:07:43;;;;;;;5.50;1.75;;;2.30;99.90;;;;;;5122374;27;20044;-59
2023/01/31 02:10:25;;;;;;;4.20;1.20;;;2.30;99.90;;;;;;5112800;27;20043;-58
2023/01/31 02:12:52;;;;;;;5.53;1.50;;;2.30;99.90;;;;;;5119870;27;20046;-59
2023/01/31 02:15:19;;;;;;;3.67;1.70;;;2.30;99.90;;;;;;5120980;27;20058;-59
2023/01/31 02:17:47;;;;;;;4.20;1.70;;;2.30;99.90;;;;;;5108850;28;20036;-58
2023/01/31 02:20:17;;;;;;;4.72;1.25;;;2.20;99.90;;;;;;5119340;27;20043;-58
2023/01/31 02:23:29;;;;;;;6.93;1.30;;;2.30;99.90;;;;;;5138554;27;20039;-58
2023/01/31 02:28:53;;;;;;;3.78;1.27;;;2.40;99.90;;;;;;5054230;28;20044;-59
2023/01/31 02:31:38;;;;;;;3.90;1.77;;;2.40;99.90;;;;;;5089391;28;20118;-61
2023/01/31 02:34:38;;;;;;;7.40;1.10;;;2.50;99.90;;;;;;5083295;28;20045;-60
2023/01/31 02:37:11;;;;;;;5.65;1.20;;;2.60;99.90;;;;;;5061701;28;20052;-60
2023/01/31 02:40:06;;;;;;;6.30;1.15;;;2.50;99.90;;;;;;5072630;28;20075;-59
2023/01/31 02:42:37;;;;;;;5.22;1.42;;;2.40;99.90;;;;;;5088158;28;20488;-61
2023/01/31 02:45:28;;;;;;;8.70;1.40;;;2.30;99.90;;;;;;5099931;28;20060;-61
2023/01/31 02:48:07;;;;;;;4.55;1.92;;;2.20;99.90;;;;;;5108986;28;20044;-60
2023/01/31 02:51:09;;;;;;;7.05;1.30;;;2.10;99.90;;;;;;5099674;28;20041;-60
2023/01/31 02:53:44;;;;;;;4.15;1.20;;;2.00;99.90;;;;;;5068696;28;20796;-59
2023/01/31 02:56:18;;;;;;;4.05;0.93;;;2.00;99.90;;;;;;5070373;28;20051;-59
2023/01/31 02:59:03;;;;;;;3.85;1.13;;;2.00;99.90;;;;;;5072214;28;20063;-61
2023/01/31 03:01:34;;;;;;;4.40;1.45;;;2.00;99.90;;;;;;5073065;28;20140;-60
2023/01/31 03:04:04;;;;;;;8.43;1.35;;;2.00;99.90;;;;;;5072206;28;20059;-60
2023/01/31 03:06:35;;;;;;;6.82;1.33;;;2.00;99.90;;;;;;5072034;28;20083;-60
2023/01/31 03:09:23;;;;;;;3.05;1.38;;;2.00;99.90;;;;;;5086296;28;20024;-61
2023/01/31 03:12:13;;;;;;;3.38;1.15;;;2.00;99.90;;;;;;5095262;28;20712;-59
2023/01/31 03:15:01;;;;;;;4.30;0.90;;;2.00;99.90;;;;;;5082961;28;20432;-62
2023/01/31 03:17:46;;;;;;;1.40;0.73;;;1.90;99.90;;;;;;5089101;28;20051;-61
2023/01/31 03:20:28;;;;;;;3.17;0.90;;;1.90;99.90;;;;;;5080140;28;20106;-61
2023/01/31 03:23:07;;;;;;;3.10;1.10;;;1.90;99.90;;;;;;5074974;28;20122;-61
2023/01/31 03:25:36;;;;;;;3.40;0.90;;;1.90;99.90;;;;;;5075784;28;20105;-61
2023/01/31 03:28:10;;;;;;;2.45;1.00;;;1.90;99.90;;;;;;5086688;28;20556;-61
2023/01/31 03:30:47;;;;;;;3.63;1.38;;;1.90;99.90;;;;;;5092175;28;20052;-61
2023/01/31 03:33:20;;;;;;;8.38;1.10;;;1.80;99.90;;;;;;5095185;28;20058;-61
2023/01/31 03:35:55;;;;;;;3.95;0.98;;;1.80;99.90;;;;;;5095442;28;20050;-61
2023/01/31 03:38:30;;;;;;;4.47;1.05;;;1.90;99.90;;;;;;5092646;28;20092;-61
2023/01/31 03:41:14;;;;;;;2.92;1.20;;;2.00;99.90;;;;;;5074481;28;20412;-61
2023/01/31 03:43:49;;;;;;;3.97;1.27;;;2.00;99.90;;;;;;5078166;28;20035;-61
2023/01/31 03:46:28;;;;;;;5.22;1.23;;;2.00;99.90;;;;;;5107447;28;20059;-61
2023/01/31 03:48:56;;;;;;;6.13;1.38;;;2.00;99.90;;;;;;5093987;28;20044;-61
2023/01/31 03:51:28;;;;;;;4.88;1.50;;;2.10;99.90;;;;;;5092975;28;20049;-61
2023/01/31 03:54:04;;;;;;;4.80;1.20;;;2.20;99.90;;;;;;5094655;28;20074;-61
2023/01/31 03:56:46;;;;;;;4.65;1.30;;;2.30;99.90;;;;;;5113270;28;20045;-61
2023/01/31 03:59:21;;;;;;;3.90;1.42;;;2.30;99.90;;;;;;5093515;28;20626;-61
2023/01/31 04:01:52;;;;;;;3.60;1.38;;;2.30;99.90;;;;;;5094400;28;20040;-61
2023/01/31 04:04:32;;;;;;;8.77;1.40;;;2.30;99.90;;;;;;5094392;28;20061;-61
2023/01/31 04:07:00;;;;;;;5.53;1.58;;;2.40;99.90;;;;;;5095255;28;20074;-61
2023/01/31 04:09:27;;;;;;;;;;;2.30;99.90;;;;;;5103638;28;20057;-61
2023/01/31 04:11:59;;;;;;;8.40;1.50;;;2.30;99.90;;;;;;5091042;28;20380;-61
2023/01/31 04:14:26;;;;;;;8.77;1.65;;;2.40;99.90;;;;;;5092178;28;20040;-61
2023/01/31 04:16:53;;;;;;;5.18;1.60;;;2.40;99.90;;;;;;5093626;28;20284;-61
2023/01/31 04:19:19;;;;;;;2.75;0.88;;;2.50;99.90;;;;;;5092216;28;20044;-61
2023/01/31 04:21:46;;;;;;;5.07;1.33;;;2.50;99.90;;;;;;5105809;28;20229;-61
2023/01/31 04:24:13;;;;;;;2.10;0.73;;;2.50;99.90;;;;;;5103646;28;20043;-61
2023/01/31 04:26:40;;;;;;;3.30;1.35;;;2.40;99.90;;;;;;5091870;28;20071;-61
2023/01/31 04:29:06;;;;;;;6.97;1.23;;;2.30;99.90;;;;;;5092111;28;20055;-61
2023/01/31 04:31:33;;;;;;;4.60;1.30;;;2.20;99.90;;;;;;5103889;28;20089;-61
2023/01/31 04:34:00;;;;;;;2.92;1.30;;;2.20;99.90;;;;;;5096315;28;20090;-61
2023/01/31 04:36:27;;;;;;;6.65;1.35;;;2.10;99.90;;;;;;5102932;28;20046;-61
2023/01/31 04:38:53;;;;;;;2.40;0.77;;;2.00;99.90;;;;;;5112320;28;20040;-61
2023/01/31 04:41:20;;;;;;;4.93;1.35;;;2.00;99.90;;;;;;5100064;28;20066;-61
2023/01/31 04:43:47;;;;;;;6.60;1.33;;;2.00;99.90;;;;;;5098863;28;20465;-61
2023/01/31 04:46:13;;;;;;;7.30;1.38;;;2.00;99.90;;;;;;5109158;28;20043;-61
2023/01/31 04:48:41;;;;;;;3.75;1.40;;;2.00;99.90;;;;;;5099530;28;20059;-61
2023/01/31 04:51:07;;;;;;;7.00;1.60;;;2.00;99.90;;;;;;5104233;28;20500;-61
2023/01/31 04:53:35;;;;;;;4.50;1.67;;;2.10;99.90;;;;;;5104414;28;20042;-61
2023/01/31 04:56:02;;;;;;;9.15;1.90;;;2.10;99.90;;;;;;5106762;28;20122;-61
2023/01/31 04:58:29;;;;;;;4.28;1.80;;;2.20;99.90;;;;;;5102206;28;20044;-61
2023/01/31 05:00:56;;;;;;;4.57;1.13;;;2.30;99.90;;;;;;5111666;28;20118;-61
2023/01/31 05:03:23;;;;;;;9.10;1.90;;;2.40;99.90;;;;;;5105051;28;20612;-61
2023/01/31 05:05:50;;;;;;;9.73;1.48;;;2.30;99.90;;;;;;5109283;28;20152;-61
2023/01/31 05:08:17;;;;;;;8.30;1.60;;;2.20;99.90;;;;;;5110942;28;20043;-61
2023/01/31 05:10:43;;;;;;;3.75;1.30;;;2.20;99.90;;;;;;5105562;28;20085;-61
2023/01/31 05:13:10;;;;;;;8.27;2.45;;;2.20;99.90;;;;;;5105034;28;20074;-61
2023/01/31 05:15:39;;;;;;;5.30;1.48;;;2.30;99.90;;;;;;5111556;28;20043;-61
2023/01/31 05:18:05;;;;;;;6.93;1.67;;;2.50;99.90;;;;;;5108149;28;20096;-61
2023/01/31 05:20:38;;;;;;;9.77;1.98;;;2.60;99.90;;;;;;5095016;28;20069;-61
2023/01/31 05:23:05;;;;;;;4.38;1.25;;;2.70;99.90;;;;;;5097824;28;20044;-61
2023/01/31 05:25:34;;;;;;;4.13;1.40;;;2.70;99.90;;;;;;5102533;28;20071;-61
2023/01/31 05:28:00;;;;;;;2.22;1.20;;;2.80;99.90;;;;;;5090977;28;20098;-61
2023/01/31 05:30:27;;;;;;;4.53;1.35;;;2.90;99.90;;;;;;5090236;28;20098;-61
2023/01/31 05:32:54;;;;;;;3.53;0.93;;;3.00;99.90;;;;;;5090477;28;20064;-61
2023/01/31 05:35:21;;;;;;;12.13;1.35;;;3.00;99.90;;;;;;5092088;28;20039;-61
2023/01/31 05:37:48;;;;;;;;;;;3.00;99.90;;;;;;5111199;28;20039;-61
2023/01/31 05:40:16;;;;;;;6.53;1.23;;;3.10;99.90;;;;;;5107784;28;19965;-61
2023/01/31 05:42:43;;;;;;;5.43;1.48;;;3.10;99.90;;;;;;5101191;28;20082;-61
2023/01/31 05:45:11;;;;;;;6.40;1.25;;;3.00;99.90;;;;;;5093373;28;20044;-61
2023/01/31 05:47:38;;;;;;;10.13;1.85;;;3.10;99.90;;;;;;5092631;28;20071;-61
2023/01/31 05:50:05;;;;;;;7.38;1.40;;;3.10;99.90;;;;;;5097658;28;20043;-61
2023/01/31 05:52:32;;;;;;;12.93;1.52;;;3.10;99.90;;;;;;5105950;28;20047;-61
2023/01/31 05:54:59;;;;;;;3.65;1.13;;;3.00;99.90;;;;;;5096453;28;20036;-61
2023/01/31 05:57:26;;;;;;;4.13;1.25;;;3.00;99.90;;;;;;5108362;28;20431;-61
2023/01/31 05:59:52;;;;;;;6.95;1.25;;;3.00;99.90;;;;;;5090886;28;20089;-61
2023/01/31 06:02:19;;;;;;;3.45;1.20;;;3.00;99.90;;;;;;5097852;28;20079;-61
2023/01/31 06:04:46;;;;;;;8.45;1.83;;;3.10;99.90;;;;;;5090130;28;20090;-61
2023/01/31 06:07:12;;;;;;;4.40;1.42;;;3.10;99.90;;;;;;5096209;28;20052;-61
2023/01/31 06:09:40;;;;;;;7.85;1.60;;;3.10;99.90;;;;;;5093278;28;20450;-61
2023/01/31 06:12:13;;;;;;;6.78;1.83;;;3.10;99.90;;;;;;5092905;28;20484;-61
2023/01/31 06:14:40;;;;;;;6.47;1.60;;;2.90;99.90;;;;;;5109172;28;20071;-60
2023/01/31 06:17:07;;;;;;;12.25;1.45;;;2.80;99.90;;;;;;5097241;28;20082;-60
2023/01/31 06:19:33;;;;;;;8.20;1.55;;;2.80;99.90;;;;;;5094401;28;20126;-59
2023/01/31 06:22:00;;;;;;;7.20;1.88;;;2.90;99.90;;;;;;5093897;28;20056;-59
2023/01/31 06:24:27;;;;;;;6.72;1.67;;;2.80;99.90;;;;;;5094733;28;20036;-60
2023/01/31 06:26:54;;;;;;;10.65;2.13;;;2.90;99.90;;;;;;5093688;28;20040;-61
2023/01/31 06:29:20;;;;;;;6.15;1.70;;;2.90;99.90;;;;;;5075938;28;20075;-60
2023/01/31 06:31:47;;;;;;;8.85;2.33;;;3.00;99.90;;;;;;5094129;28;20040;-60
2023/01/31 06:34:14;;;;;;;13.80;3.17;;;3.00;99.90;;;;;;5094281;28;20044;-61
2023/01/31 06:36:41;;;;;;;10.27;2.20;;;3.00;99.90;;;;;;5093353;28;20042;-61
2023/01/31 06:39:10;;;;;;;14.73;4.32;;;3.00;99.90;;;;;;5095441;28;20044;-60
2023/01/31 06:41:37;;;;;;;8.63;2.28;;;3.00;99.90;;;;;;5107483;28;20089;-62
2023/01/31 06:44:03;;;;;;;6.68;2.08;;;3.10;99.90;;;;;;5114576;28;20135;-61
2023/01/31 06:46:30;;;;;;;5.78;1.90;;;3.10;99.90;;;;;;5111968;28;20585;-61
2023/01/31 06:48:57;;;;;;;7.57;1.95;;;3.10;99.90;;;;;;5103232;28;20385;-61
2023/01/31 06:51:24;;;;;;;3.85;1.77;;;3.10;99.90;;;;;;5103587;28;20359;-61
2023/01/31 06:53:51;;;;;;;9.73;2.72;;;3.00;99.90;;;;;;5104307;28;20122;-61
2023/01/31 06:56:18;;;;;;;11.15;3.97;;;2.90;99.90;;;;;;5103719;28;20039;-61
2023/01/31 06:58:45;;;;;;;15.88;6.40;;;2.70;99.90;;;;;;5104109;28;20067;-61
2023/01/31 07:01:13;;;;;;;16.45;6.88;;;2.60;99.90;;;;;;5086103;28;20063;-61
2023/01/31 07:03:40;;;;;;;31.52;10.55;;;2.50;99.90;;;;;;5102502;28;20211;-61
2023/01/31 07:06:08;;;;;;;37.85;12.63;;;2.40;99.90;;;;;;5104173;28;20054;-61
2023/01/31 07:08:36;;;;;;;43.72;13.73;;;3.20;99.90;;;;;;5104249;28;20434;-60
2023/01/31 07:11:04;;;;;;;40.85;14.25;;;2.20;99.90;;;;;;5103422;28;20071;-61
2023/01/31 07:13:31;;;;;;;36.60;12.48;;;2.20;99.90;;;;;;5102126;28;20478;-61
2023/01/31 07:15:58;;;;;;;31.75;11.25;;;2.10;99.90;;;;;;5103721;28;20789;-61
2023/01/31 07:18:25;;;;;;;30.40;10.98;;;2.20;99.90;;;;;;5110058;28;20035;-61
2023/01/31 07:20:51;;;;;;;33.85;13.20;;;2.20;99.90;;;;;;5102983;28;20075;-60
2023/01/31 07:23:18;;;;;;;18.25;6.15;;;2.20;99.90;;;;;;5095502;28;20074;-61
2023/01/31 07:25:45;;;;;;;11.70;4.70;;;2.10;99.90;;;;;;5093065;28;20067;-61
2023/01/31 07:28:11;;;;;;;13.18;4.38;;;2.10;99.90;;;;;;5093793;28;20067;-61
2023/01/31 07:30:38;;;;;;;12.75;5.35;;;2.10;99.90;;;;;;5092529;28;20047;-61
2023/01/31 07:33:05;;;;;;;;;;;2.10;99.90;;;;;;5092324;28;20043;-61
2023/01/31 07:35:32;;;;;;;14.63;6.07;;;2.20;99.90;;;;;;5092373;28;19920;-60
2023/01/31 07:37:59;;;;;;;15.93;5.07;;;2.30;99.90;;;;;;5093170;28;20506;-60
2023/01/31 07:40:25;;;;;;;11.25;4.32;;;2.40;99.90;;;;;;5092818;28;20068;-60
2023/01/31 07:42:57;;;;;;;10.07;3.25;;;2.30;99.90;;;;;;5092400;28;20119;-60
2023/01/31 07:45:25;;;;;;;15.80;5.18;;;2.30;99.90;;;;;;5092394;28;20497;-61
2023/01/31 07:47:51;;;;;;;;;;;2.40;99.90;;;;;;5093273;28;20036;-61
2023/01/31 07:50:18;;;;;;;8.10;2.47;;;2.50;99.90;;;;;;5092592;28;19919;-60
2023/01/31 07:52:47;;;;;;;18.00;3.97;;;2.50;99.90;;;;;;5092788;28;20488;-61
2023/01/31 07:55:13;;;;;;;12.30;3.80;;;2.50;99.90;;;;;;5092775;28;20044;-61
2023/01/31 07:57:40;;;;;;;13.48;3.88;;;2.40;99.90;;;;;;5092309;28;20080;-60
2023/01/31 08:03:31;;;;;;;8.30;3.00;;;2.40;99.90;;;;;;5092845;28;20067;-60
2023/01/31 08:05:39;;;;;;;7.25;2.42;;;2.50;99.90;;;;;;5092044;28;20048;-60
2023/01/31 08:08:09;;;;;;;5.97;2.38;;;2.50;99.90;;;;;;5093395;28;20105;-61
2023/01/31 08:10:36;;;;;;;11.27;2.70;;;2.70;99.90;;;;;;5091941;28;20048;-60
2023/01/31 08:13:03;;;;;;;;;;;2.80;99.90;;;;;;5092141;28;20063;-61
2023/01/31 08:15:30;;;;;;;11.15;3.90;;;2.80;99.90;;;;;;5092671;28;19959;-60
2023/01/31 08:17:57;;;;;;;15.57;4.18;;;2.80;99.90;;;;;;5092231;28;20044;-61
2023/01/31 08:20:24;;;;;;;19.48;5.80;;;2.90;99.90;;;;;;5092221;28;20101;-61
2023/01/31 08:22:50;;;;;;;18.25;4.70;;;2.90;99.90;;;;;;5093415;28;20036;-60
2023/01/31 08:25:17;;;;;;;15.63;4.18;;;2.90;99.90;;;;;;5091839;28;20071;-61
2023/01/31 08:27:46;;;;;;;14.85;3.67;;;3.00;99.90;;;;;;5121984;22;20039;-59
2023/01/31 08:30:13;;;;;;;7.68;3.42;;;3.10;99.90;;;;;;5115026;27;20566;-60
2023/01/31 08:32:40;;;;;;;12.63;5.20;;;3.10;99.90;;;;;;5110784;27;20039;-59
2023/01/31 08:35:07;;;;;;;12.18;4.68;;;3.10;99.90;;;;;;5112108;28;20040;-60
2023/01/31 08:37:34;;;;;;;9.88;5.10;;;3.20;99.90;;;;;;5112109;28;20039;-59
2023/01/31 08:40:01;;;;;;;17.63;4.65;;;3.30;99.90;;;;;;5108862;28;20089;-59
2023/01/31 08:42:27;;;;;;;28.52;10.77;;;3.30;99.90;;;;;;5111745;28;20441;-59
2023/01/31 08:44:55;;;;;;;23.30;8.65;;;3.40;99.90;;;;;;5111840;28;20082;-59
2023/01/31 08:47:22;;;;;;;25.02;9.10;;;3.40;99.90;;;;;;5103779;28;20052;-59
2023/01/31 08:49:48;;;;;;;16.98;6.45;;;3.50;99.90;;;;;;5111987;28;20074;-59
2023/01/31 08:52:15;;;;;;;24.25;8.15;;;3.60;99.90;;;;;;5111409;28;20052;-59
2023/01/31 08:54:42;;;;;;;20.27;7.60;;;3.70;99.90;;;;;;5093622;28;20476;-59
2023/01/31 08:57:08;;;;;;;28.15;8.73;;;3.80;99.90;;;;;;5108090;28;20413;-59
2023/01/31 08:59:35;;;;;;;21.05;8.10;;;3.90;99.90;;;;;;5111864;28;20089;-59
2023/01/31 09:02:02;;;;;;;21.70;9.65;;;4.00;99.90;;;;;;5101586;28;20043;-59
2023/01/31 09:04:29;;;;;;;34.85;10.55;;;4.10;99.90;;;;;;5111268;28;20122;-59
2023/01/31 09:06:56;;;;;;;42.20;12.90;;;4.20;99.90;;;;;;5103801;28;20043;-59
2023/01/31 09:09:24;;;;;;;27.33;10.07;;;4.30;99.90;;;;;;5109351;28;20071;-59
2023/01/31 09:11:51;;;;;;;21.77;8.23;;;4.40;99.90;;;;;;5109714;28;20514;-60
2023/01/31 09:14:18;;;;;;;27.45;12.23;;;4.40;99.90;;;;;;5110180;28;20097;-59
2023/01/31 09:16:47;;;;;;;24.55;11.43;;;4.50;99.90;;;;;;5104389;28;20079;-59
2023/01/31 09:19:14;;;;;;;31.58;12.77;;;4.60;99.90;;;;;;5111662;28;20040;-59
2023/01/31 09:21:41;;;;;;;26.20;8.38;;;4.70;99.90;;;;;;5105903;28;20039;-59
2023/01/31 09:24:09;;;;;;;20.15;5.80;;;4.70;99.90;;;;;;5107077;28;20036;-59
2023/01/31 09:26:35;;;;;;;17.40;5.40;;;4.70;99.90;;;;;;5110279;28;20048;-59
2023/01/31 09:29:02;;;;;;;14.73;4.70;;;4.70;99.90;;;;;;5105062;28;20036;-59
2023/01/31 09:31:30;;;;;;;14.13;5.10;;;4.80;99.90;;;;;;5104398;28;20036;-59
2023/01/31 09:33:57;;;;;;;16.80;4.97;;;4.80;99.90;;;;;;5111545;28;20039;-59
2023/01/31 09:36:24;;;;;;;15.43;5.50;;;4.90;99.90;;;;;;5110840;28;20071;-59
2023/01/31 09:38:55;;;;;;;14.45;5.00;;;5.00;99.90;;;;;;5112132;28;20119;-59
2023/01/31 09:41:43;;;;;;;15.05;5.45;;;5.00;99.90;;;;;;5103296;28;20088;-60
2023/01/31 09:44:10;;;;;;;19.08;5.03;;;5.10;99.90;;;;;;5115217;28;20081;-59
2023/01/31 09:46:41;;;;;;;9.10;4.50;;;5.00;99.90;;;;;;5115196;28;20056;-59
2023/01/31 09:49:17;;;;;;;9.60;4.15;;;4.90;99.90;;;;;;5105685;28;20297;-59
2023/01/31 09:51:47;;;;;;;10.70;3.30;;;5.00;99.90;;;;;;5107083;28;20040;-59
2023/01/31 09:54:21;;;;;;;8.82;2.65;;;5.20;99.90;;;;;;5108994;28;20076;-59
2023/01/31 09:57:14;;;;;;;9.80;2.67;;;5.30;99.90;;;;;;5115388;28;20031;-59
2023/01/31 10:00:16;;;;;;;9.10;2.40;;;5.40;99.90;;;;;;5114289;28;20406;-59
2023/01/31 10:03:17;;;;;;;10.82;2.53;;;5.50;99.90;;;;;;5099490;28;20078;-60
2023/01/31 10:06:12;;;;;;;9.32;2.53;;;5.70;99.90;;;;;;5107556;28;20043;-59
2023/01/31 10:09:02;;;;;;;12.43;2.33;;;5.60;99.90;;;;;;5109267;28;20093;-59
2023/01/31 10:11:42;;;;;;;8.75;3.47;;;5.70;99.90;;;;;;5114767;28;20055;-59
2023/01/31 10:14:20;;;;;;;11.73;2.50;;;5.70;99.90;;;;;;5114047;28;20055;-59
2023/01/31 10:17:06;;;;;;;4.85;1.33;;;5.70;99.90;;;;;;5108567;28;20044;-59
2023/01/31 10:19:43;;;;;;;6.43;1.67;;;5.70;99.90;;;;;;5113575;28;20063;-59
2023/01/31 10:22:16;;;;;;;11.00;1.80;;;5.70;99.90;;;;;;5114518;28;20428;-59
2023/01/31 10:24:53;;;;;;;7.32;1.45;;;5.70;99.90;;;;;;5111068;28;20075;-59
2023/01/31 10:27:41;;;;;;;3.78;1.42;;;5.70;99.90;;;;;;5108781;28;20075;-59
2023/01/31 10:30:17;;;;;;;9.60;1.40;;;5.60;99.90;;;;;;5114813;28;20043;-59
2023/01/31 10:32:50;;;;;;;8.27;1.08;;;5.60;99.90;;;;;;5114195;28;20055;-59
2023/01/31 10:35:23;;;;;;;6.50;1.30;;;5.60;99.90;;;;;;5109923;28;20474;-59
2023/01/31 10:37:58;;;;;;;6.88;1.40;;;5.60;99.90;;;;;;5114512;28;20086;-59
2023/01/31 10:40:29;;;;;;;4.10;1.17;;;5.60;99.90;;;;;;5114321;28;20093;-59
2023/01/31 10:43:03;;;;;;;6.22;1.52;;;5.60;99.90;;;;;;5112028;28;20044;-59
2023/01/31 10:45:32;;;;;;;3.35;1.42;;;5.60;99.90;;;;;;5112964;28;20081;-59
2023/01/31 10:48:15;;;;;;;8.93;1.90;;;5.50;99.90;;;;;;5113614;28;20496;-59
2023/01/31 10:50:52;;;;;;;8.95;2.45;;;5.30;99.90;;;;;;5114410;28;20411;-59
2023/01/31 10:53:41;;;;;;;16.52;1.67;;;5.30;99.90;;;;;;5113260;28;20093;-59
2023/01/31 10:56:24;;;;;;;7.68;1.55;;;5.40;99.90;;;;;;5113834;28;20043;-59
2023/01/31 10:58:52;;;;;;;8.25;1.90;;;5.40;99.90;;;;;;5111329;28;20101;-59
2023/01/31 11:01:18;;;;;;;9.50;1.85;;;5.40;99.90;;;;;;5110944;28;20148;-59
2023/01/31 11:03:52;;;;;;;11.20;2.22;;;5.10;99.90;;;;;;5113619;28;20047;-59
2023/01/31 11:06:20;;;;;;;6.50;1.88;;;5.10;99.90;;;;;;5114196;28;20298;-59
2023/01/31 11:09:10;;;;;;;7.38;1.55;;;5.10;99.90;;;;;;5108748;28;20031;-59
2023/01/31 11:11:52;;;;;;;5.43;1.95;;;5.30;99.90;;;;;;5113343;28;20507;-59
2023/01/31 11:14:19;;;;;;;9.88;2.10;;;5.50;99.90;;;;;;5114180;28;20233;-59
2023/01/31 11:16:47;;;;;;;7.20;1.80;;;5.50;99.90;;;;;;5101440;28;20460;-59
2023/01/31 11:19:25;;;;;;;4.47;1.80;;;5.60;99.90;;;;;;5110781;28;20027;-59
2023/01/31 11:21:53;;;;;;;11.60;2.67;;;5.70;99.90;;;;;;5125006;27;20558;-59
2023/01/31 11:24:23;;;;;;;7.07;2.20;;;6.00;99.90;;;;;;5108804;27;20044;-59
2023/01/31 11:27:00;;;;;;;8.38;1.98;;;6.00;99.90;;;;;;5114127;27;20039;-59
2023/01/31 11:29:37;;;;;;;9.80;2.53;;;6.20;99.90;;;;;;5102366;28;20096;-59
2023/01/31 11:32:16;;;;;;;11.23;4.18;;;6.20;99.90;;;;;;5112128;28;20089;-59
2023/01/31 11:35:04;;;;;;;13.10;2.50;;;6.30;99.90;;;;;;5113127;28;20047;-59
2023/01/31 11:37:32;;;;;;;11.40;2.50;;;6.20;99.90;;;;;;5107591;28;20044;-59
2023/01/31 11:40:26;;;;;;;8.00;2.30;;;6.20;99.90;;;;;;5113289;28;20330;-59
2023/01/31 11:42:58;;;;;;;11.43;2.20;;;6.20;99.90;;;;;;5111577;28;20044;-59
2023/01/31 11:45:34;;;;;;;10.38;2.20;;;6.10;99.90;;;;;;5113480;28;20464;-59
2023/01/31 11:48:08;;;;;;;10.48;2.30;;;5.90;99.90;;;;;;5108147;28;20039;-59
2023/01/31 11:50:50;;;;;;;6.05;2.17;;;5.90;99.90;;;;;;5113205;28;20377;-59
2023/01/31 11:53:28;;;;;;;7.80;2.45;;;5.80;99.90;;;;;;5113023;28;20035;-59
2023/01/31 11:56:10;;;;;;;8.23;2.58;;;5.70;99.90;;;;;;5104346;28;20032;-59
2023/01/31 11:58:39;;;;;;;6.30;2.47;;;5.70;99.90;;;;;;5112640;28;20077;-59
2023/01/31 12:01:13;;;;;;;10.57;2.50;;;5.80;99.90;;;;;;5112331;28;20101;-59
2023/01/31 12:03:50;;;;;;;4.60;2.03;;;5.70;99.90;;;;;;5112698;28;20065;-59
2023/01/31 12:06:40;;;;;;;11.40;2.38;;;5.80;99.90;;;;;;5108450;28;20044;-59
2023/01/31 12:09:26;;;;;;;6.35;2.30;;;5.90;99.90;;;;;;5112786;28;20043;-59
2023/01/31 12:12:05;;;;;;;5.40;2.20;;;6.10;99.90;;;;;;5111350;28;20051;-59
2023/01/31 12:14:39;;;;;;;15.00;2.63;;;6.20;99.90;;;;;;5112321;28;20496;-59
2023/01/31 12:17:14;;;;;;;7.10;2.30;;;6.20;99.90;;;;;;5107181;28;20040;-59
2023/01/31 12:20:18;;;;;;;6.10;3.13;;;6.10;99.90;;;;;;5092275;28;20051;-59
2023/01/31 12:23:05;;;;;;;8.65;2.60;;;6.10;99.90;;;;;;5092331;28;20040;-59
2023/01/31 12:26:10;;;;;;;9.68;2.78;;;6.10;99.90;;;;;;5108984;28;20101;-59
2023/01/31 12:28:52;;;;;;;14.27;2.65;;;6.00;99.90;;;;;;5049161;28;20098;-59
2023/01/31 12:31:31;;;;;;;7.85;2.10;;;5.90;99.90;;;;;;5108095;28;20104;-59
2023/01/31 12:34:18;;;;;;;7.93;2.45;;;5.90;99.90;;;;;;5108505;28;20039;-59
2023/01/31 12:37:28;;;;;;;7.20;2.53;;;5.90;99.90;;;;;;5112048;28;20047;-59
2023/01/31 12:40:37;;;;;;;6.13;2.47;;;5.90;99.90;;;;;;5111984;28;20172;-59
2023/01/31 12:43:15;;;;;;;10.52;2.10;;;5.80;99.90;;;;;;5054169;28;20129;-59
2023/01/31 12:46:00;;;;;;;14.85;2.97;;;5.90;99.90;;;;;;5097309;28;20087;-59
2023/01/31 12:49:02;;;;;;;6.80;1.95;;;6.00;99.90;;;;;;5111362;28;20043;-59
2023/01/31 12:51:42;;;;;;;5.93;2.40;;;6.00;99.90;;;;;;5083628;28;20424;-59
2023/01/31 12:54:36;;;;;;;7.45;2.67;;;6.10;99.90;;;;;;5110820;28;20035;-59
2023/01/31 12:57:14;;;;;;;15.02;3.45;;;6.00;99.90;;;;;;5106000;28;20078;-59
2023/01/31 13:00:13;;;;;;;14.32;3.08;;;6.00;99.90;;;;;;5102698;28;20063;-59
2023/01/31 13:03:09;;;;;;;10.55;2.90;;;6.10;99.90;;;;;;5066958;28;20109;-59
2023/01/31 13:05:47;;;;;;;11.27;2.97;;;6.20;99.90;;;;;;5091438;28;20150;-59
2023/01/31 13:08:18;;;;;;;16.35;3.67;;;6.20;99.90;;;;;;5098832;28;20040;-59
2023/01/31 13:11:02;;;;;;;6.95;3.65;;;6.20;99.90;;;;;;5111954;28;20039;-59
2023/01/31 13:13:51;;;;;;;13.25;2.58;;;6.30;99.90;;;;;;5111025;28;20130;-59
2023/01/31 13:16:43;;;;;;;11.77;3.97;;;6.40;99.90;;;;;;5103785;28;20039;-59
2023/01/31 13:19:25;;;;;;;7.65;3.15;;;6.30;99.90;;;;;;5100860;28;20047;-59
2023/01/31 13:21:58;;;;;;;10.32;2.63;;;6.30;99.90;;;;;;5104532;28;20039;-59
2023/01/31 13:24:31;;;;;;;10.15;2.65;;;6.10;99.90;;;;;;5111494;28;20076;-59
2023/01/31 13:27:03;;;;;;;11.32;3.35;;;6.10;99.90;;;;;;5104631;28;20039;-59
2023/01/31 13:29:45;;;;;;;8.27;2.88;;;6.10;99.90;;;;;;5111433;28;20096;-59
2023/01/31 13:32:19;;;;;;;9.48;3.20;;;6.00;99.90;;;;;;5107234;28;20040;-59